Airfield :
LOGIN :

Register | Disclaimer

   EN    FR    IT 

 










Legend :    VFR   Marginal VFR   IFR   Intensive IFR   Very Intensive IFR
Visi :
Ceiling :
>= 8 km
>= 3000ft
5 to 8 km
1000 to 3000 ft
1500m to 5 km
500 to 1000 ft
800 to 1500m
200 to 500 ft
< 800m
< 200 ft
Symbols :   Thunderstorms  Fog  Heavy snow  Heavy precipitations  Wind > 20 kt
SIGMETs :     Misc.  Thunderstorms  Icing  Turbulence  Mountain Waves  Volcanic Ashes







- Airport Elevation : 502 ft
- IATA code : ORK


EICK - Cork

CURRENT METAR :
  • 230500Z 23012KT 9999 FEW016 03/01 Q0989 NOSIG

EXPIRED METARs :
  • 230430Z 24012KT 9999 FEW016 03/01 Q0989 NOSIG
  • 230400Z 23012KT 9999 FEW016 03/02 Q0989 NOSIG
  • 230330Z 23013KT 9999 FEW016 03/02 Q0988 NOSIG
  • 230300Z 27008KT 9999 FEW016 02/01 Q0988 NOSIG
  • 230230Z 25010KT 9999 FEW016 03/02 Q0988 NOSIG

TAF TAF EICK
Valid from the 23 at 00:00 until the 24 at 00:00 UTC


222300Z 2300/2324 27010KT 9999 FEW010 SCT030
BECMG 2303/2306 24020G30KT
TEMPO 2304/2307 -SHRA 25025G35KT SCT018CB
BECMG 2308/2311 32008KT
TEMPO 2318/2324 VRB03KT
No reported NOTAMs for that airfield.
1 SIGMET reported for the Shannon FIR (EISN) :
 
Severe turbulence
EISN SIGMET 01 VALID 230310/230710 EINN
EISN SHANNON FIR SEV TURB FCST WI N5425 W01100 - N5405 W01400 - N5330 W01300 - N5205 W01100 - N5300 W01020 - N5425 W01100 SFC/FL060 MOV SE AT 25KT NC=



MET'MAP, your aeronautical weather chart ! - Copyright ORBIFLY December 2007 - Disclaimer

ORBIFLY MET'MAP TEAM :

Programming & Development : Alexandra Zaïnal
Concept & Development : Baudouin d'Aumeries
Co-Development & Prog : Marc-Olivier Méhu
Technical & hardware support : Manuel Goepfert

Contact : metmap@orbifly.com




SOURCES & CREDITS :

   NOAA